DLH1559 LUKK-EDDF
Flight info
| Callsign | DLH1559 |
|---|---|
| Flight time | N/A |
| Altitude | 38000 |
| Route | NUNTA DCT PASKA DCT REPTO DCT PITOK DCT ELMEK DCT RAPET T170 GAPLA T178 KERAX KERAX5D |
| Aircraft | A319/M-SDE2E3FGIJ1LORWXYZ/HB1 |
Departure
| Time | 2026-04-30 21:08 |
|---|---|
| Airport | Chişinău International Airport (LUKK) |
Arrival
| Time | N/A |
|---|---|
| Airport | Frankfurt Main Airport (EDDF) |
| Time | Latitude | Longitude | Altitude | Speed | Heading |
|---|---|---|---|---|---|
| 2026-04-30 20:31 | 46.93497 | 28.93182 | 408 ft | 0 kts | 51° |
| 2026-04-30 20:57 | 46.93495 | 28.93179 | 408 ft | 3 kts | 51° |
| 2026-04-30 20:57 | 46.93479 | 28.93149 | 405 ft | 4 kts | 52° |
| 2026-04-30 20:57 | 46.93462 | 28.93118 | 408 ft | 3 kts | 52° |
| 2026-04-30 20:58 | 46.93460 | 28.93112 | 408 ft | 0 kts | 52° |
| 2026-04-30 21:01 | 46.93460 | 28.93113 | 408 ft | 0 kts | 60° |
| 2026-04-30 21:01 | 46.93449 | 28.93179 | 408 ft | 8 kts | 98° |
| 2026-04-30 21:02 | 46.93442 | 28.93267 | 406 ft | 10 kts | 97° |
| 2026-04-30 21:02 | 46.93435 | 28.93370 | 408 ft | 8 kts | 96° |
| 2026-04-30 21:02 | 46.93425 | 28.93457 | 405 ft | 8 kts | 101° |
| 2026-04-30 21:02 | 46.93381 | 28.93484 | 408 ft | 9 kts | 189° |
| 2026-04-30 21:03 | 46.93314 | 28.93473 | 408 ft | 11 kts | 186° |
| 2026-04-30 21:03 | 46.93236 | 28.93458 | 409 ft | 11 kts | 187° |
| 2026-04-30 21:03 | 46.93178 | 28.93447 | 407 ft | 6 kts | 186° |
| 2026-04-30 21:03 | 46.93149 | 28.93484 | 411 ft | 7 kts | 108° |
| 2026-04-30 21:04 | 46.93139 | 28.93567 | 408 ft | 10 kts | 96° |
| 2026-04-30 21:04 | 46.93130 | 28.93687 | 409 ft | 14 kts | 98° |
| 2026-04-30 21:04 | 46.93102 | 28.94029 | 407 ft | 19 kts | 97° |
| 2026-04-30 21:05 | 46.93085 | 28.94227 | 405 ft | 17 kts | 97° |
| 2026-04-30 21:05 | 46.93070 | 28.94404 | 407 ft | 18 kts | 99° |
| 2026-04-30 21:05 | 46.93055 | 28.94575 | 407 ft | 17 kts | 97° |
| 2026-04-30 21:05 | 46.93040 | 28.94752 | 409 ft | 17 kts | 97° |
| 2026-04-30 21:06 | 46.93025 | 28.94922 | 410 ft | 15 kts | 97° |
| 2026-04-30 21:06 | 46.93013 | 28.95056 | 410 ft | 7 kts | 98° |
| 2026-04-30 21:06 | 46.92978 | 28.95110 | 410 ft | 9 kts | 174° |
| 2026-04-30 21:06 | 46.92905 | 28.95115 | 409 ft | 11 kts | 177° |
| 2026-04-30 21:07 | 46.92836 | 28.95104 | 409 ft | 8 kts | 208° |
| 2026-04-30 21:07 | 46.92820 | 28.95027 | 409 ft | 9 kts | 265° |
| 2026-04-30 21:07 | 46.92819 | 28.94958 | 409 ft | 3 kts | 267° |
| 2026-04-30 21:07 | 46.92819 | 28.94956 | 409 ft | 0 kts | 268° |
| 2026-04-30 21:08 | 46.92813 | 28.94680 | 408 ft | 71 kts | 268° |
| 2026-04-30 21:08 | 46.92793 | 28.93560 | 413 ft | 146 kts | 269° |
| 2026-04-30 21:08 | 46.92743 | 28.91996 | 959 ft | 158 kts | 270° |
| 2026-04-30 21:08 | 46.92717 | 28.90344 | 1659 ft | 170 kts | 274° |
| 2026-04-30 21:09 | 46.92707 | 28.88494 | 2157 ft | 193 kts | 273° |
| 2026-04-30 21:09 | 46.92683 | 28.86411 | 2621 ft | 217 kts | 272° |
| 2026-04-30 21:09 | 46.92649 | 28.84067 | 3181 ft | 243 kts | 271° |
| 2026-04-30 21:09 | 46.92605 | 28.81486 | 3991 ft | 260 kts | 271° |
| 2026-04-30 21:10 | 46.92571 | 28.79693 | 4787 ft | 262 kts | 271° |
| 2026-04-30 21:10 | 46.92517 | 28.77058 | 5996 ft | 263 kts | 270° |
| 2026-04-30 21:10 | 46.92461 | 28.74335 | 7211 ft | 265 kts | 270° |
| 2026-04-30 21:10 | 46.92408 | 28.71626 | 8305 ft | 269 kts | 270° |
| 2026-04-30 21:11 | 46.92435 | 28.68912 | 9364 ft | 272 kts | 278° |
| 2026-04-30 21:11 | 46.92831 | 28.66196 | 10429 ft | 275 kts | 289° |
| 2026-04-30 21:11 | 46.93442 | 28.63438 | 11004 ft | 297 kts | 289° |
| 2026-04-30 21:11 | 46.94100 | 28.60505 | 11732 ft | 309 kts | 289° |
| 2026-04-30 21:12 | 46.94776 | 28.57491 | 12663 ft | 314 kts | 289° |
| 2026-04-30 21:12 | 46.95461 | 28.54425 | 13593 ft | 320 kts | 289° |
| 2026-04-30 21:12 | 46.96157 | 28.51306 | 14482 ft | 324 kts | 289° |
| 2026-04-30 21:12 | 46.96861 | 28.48149 | 15335 ft | 328 kts | 289° |
| 2026-04-30 21:13 | 46.97567 | 28.44959 | 16187 ft | 331 kts | 288° |
| 2026-04-30 21:13 | 46.98277 | 28.41732 | 17041 ft | 334 kts | 288° |
| 2026-04-30 21:13 | 46.98990 | 28.38472 | 17884 ft | 338 kts | 288° |
| 2026-04-30 21:13 | 46.99710 | 28.35177 | 18710 ft | 341 kts | 288° |
| 2026-04-30 21:14 | 47.00438 | 28.31852 | 19426 ft | 345 kts | 288° |
| 2026-04-30 21:14 | 47.01176 | 28.28490 | 20140 ft | 348 kts | 288° |
| 2026-04-30 21:14 | 47.01919 | 28.25095 | 20850 ft | 352 kts | 288° |
| 2026-04-30 21:14 | 47.02668 | 28.21658 | 21564 ft | 355 kts | 288° |
| 2026-04-30 21:15 | 47.03424 | 28.18190 | 22273 ft | 359 kts | 289° |
| 2026-04-30 21:15 | 47.04192 | 28.14676 | 22923 ft | 365 kts | 289° |
| 2026-04-30 21:15 | 47.04971 | 28.11112 | 23596 ft | 369 kts | 289° |
| 2026-04-30 21:15 | 47.05756 | 28.07509 | 24214 ft | 373 kts | 289° |
| 2026-04-30 21:16 | 47.06545 | 28.03867 | 24777 ft | 377 kts | 289° |
| 2026-04-30 21:16 | 47.07341 | 28.00188 | 25334 ft | 380 kts | 289° |
| 2026-04-30 21:16 | 47.08142 | 27.96471 | 25876 ft | 384 kts | 289° |
| 2026-04-30 21:16 | 47.08944 | 27.92726 | 26407 ft | 387 kts | 288° |
| 2026-04-30 21:17 | 47.09752 | 27.88941 | 26932 ft | 390 kts | 288° |
| 2026-04-30 21:17 | 47.10563 | 27.85120 | 27439 ft | 394 kts | 288° |
| 2026-04-30 21:17 | 47.11316 | 27.81235 | 27937 ft | 397 kts | 286° |
| 2026-04-30 21:17 | 47.12017 | 27.77289 | 28353 ft | 403 kts | 286° |
| 2026-04-30 21:18 | 47.12696 | 27.73274 | 28790 ft | 407 kts | 285° |
| 2026-04-30 21:18 | 47.13370 | 27.69218 | 29262 ft | 411 kts | 285° |
| 2026-04-30 21:18 | 47.14056 | 27.65115 | 29740 ft | 414 kts | 285° |
| 2026-04-30 21:18 | 47.14754 | 27.60994 | 30205 ft | 418 kts | 285° |
| 2026-04-30 21:19 | 47.15467 | 27.56840 | 30613 ft | 421 kts | 286° |
| 2026-04-30 21:19 | 47.16191 | 27.52655 | 30982 ft | 424 kts | 286° |
| 2026-04-30 21:19 | 47.16924 | 27.48444 | 31348 ft | 427 kts | 286° |
| 2026-04-30 21:19 | 47.17660 | 27.44201 | 31708 ft | 429 kts | 285° |
| 2026-04-30 21:20 | 47.18395 | 27.39937 | 32069 ft | 432 kts | 286° |
| 2026-04-30 21:20 | 47.19130 | 27.35655 | 32520 ft | 432 kts | 286° |
| 2026-04-30 21:20 | 47.19860 | 27.31373 | 33002 ft | 432 kts | 286° |
| 2026-04-30 21:20 | 47.20588 | 27.27096 | 33494 ft | 431 kts | 286° |
| 2026-04-30 21:21 | 47.21312 | 27.22819 | 33990 ft | 430 kts | 285° |
| 2026-04-30 21:21 | 47.22032 | 27.18549 | 34461 ft | 430 kts | 285° |
| 2026-04-30 21:21 | 47.23464 | 27.10023 | 35210 ft | 429 kts | 285° |
| 2026-04-30 21:22 | 47.24179 | 27.05761 | 35570 ft | 429 kts | 285° |
| 2026-04-30 21:22 | 47.26319 | 26.92953 | 36539 ft | 430 kts | 285° |
| 2026-04-30 21:23 | 47.27031 | 26.88674 | 36860 ft | 430 kts | 285° |
| 2026-04-30 21:23 | 47.27744 | 26.84395 | 37183 ft | 430 kts | 285° |
| 2026-04-30 21:23 | 47.29163 | 26.75839 | 37813 ft | 430 kts | 285° |
| 2026-04-30 21:24 | 47.29869 | 26.71553 | 38105 ft | 430 kts | 285° |
| 2026-04-30 21:24 | 47.30576 | 26.67272 | 38331 ft | 431 kts | 285° |
| 2026-04-30 21:24 | 47.31981 | 26.58711 | 38381 ft | 429 kts | 285° |
| 2026-04-30 21:25 | 47.34015 | 26.45886 | 38385 ft | 429 kts | 283° |
| 2026-04-30 21:26 | 47.35691 | 26.32931 | 38386 ft | 429 kts | 282° |
| 2026-04-30 21:27 | 47.37330 | 26.19953 | 38386 ft | 429 kts | 283° |
| 2026-04-30 21:27 | 47.38444 | 26.11368 | 38401 ft | 429 kts | 283° |
| 2026-04-30 21:28 | 47.40122 | 25.98390 | 38404 ft | 429 kts | 283° |
| 2026-04-30 21:29 | 47.41773 | 25.85394 | 38408 ft | 429 kts | 282° |
| 2026-04-30 21:30 | 47.44491 | 25.63731 | 38407 ft | 429 kts | 283° |
| 2026-04-30 21:31 | 47.47169 | 25.42056 | 38418 ft | 429 kts | 283° |
| 2026-04-30 21:32 | 47.48757 | 25.29029 | 38420 ft | 429 kts | 282° |
| 2026-04-30 21:32 | 47.49807 | 25.20336 | 38421 ft | 429 kts | 282° |
| 2026-04-30 21:33 | 47.51369 | 25.07293 | 38424 ft | 430 kts | 282° |
| 2026-04-30 21:34 | 47.52406 | 24.98590 | 38426 ft | 429 kts | 282° |
| 2026-04-30 21:34 | 47.53946 | 24.85533 | 38416 ft | 430 kts | 282° |
| 2026-04-30 21:35 | 47.54960 | 24.76811 | 38418 ft | 430 kts | 282° |
| 2026-04-30 21:35 | 47.55970 | 24.68088 | 38422 ft | 430 kts | 282° |
| 2026-04-30 21:36 | 47.56983 | 24.59353 | 38419 ft | 430 kts | 282° |
| 2026-04-30 21:37 | 47.58980 | 24.41936 | 38408 ft | 430 kts | 282° |
| 2026-04-30 21:37 | 47.59966 | 24.33138 | 38403 ft | 430 kts | 282° |
| 2026-04-30 21:38 | 47.60945 | 24.24399 | 38395 ft | 430 kts | 282° |
| 2026-04-30 21:38 | 47.61919 | 24.15654 | 38397 ft | 430 kts | 282° |
| 2026-04-30 21:39 | 47.62876 | 24.06958 | 38382 ft | 430 kts | 282° |
| 2026-04-30 21:39 | 47.63999 | 23.98259 | 38379 ft | 428 kts | 290° |
| 2026-04-30 21:40 | 47.64338 | 23.96637 | 38379 ft | 427 kts | 290° |
| 2026-04-30 21:41 | 47.65667 | 23.90242 | 38379 ft | 428 kts | 290° |
| 2026-04-30 21:41 | 47.67416 | 23.81810 | 38372 ft | 427 kts | 290° |
| 2026-04-30 21:42 | 47.69156 | 23.73373 | 38346 ft | 428 kts | 290° |
| 2026-04-30 21:42 | 47.70889 | 23.64924 | 38345 ft | 428 kts | 289° |
| 2026-04-30 21:43 | 47.72336 | 23.57825 | 38352 ft | 429 kts | 289° |
| 2026-04-30 21:43 | 47.74334 | 23.47966 | 38355 ft | 429 kts | 289° |
| 2026-04-30 21:44 | 47.76052 | 23.39491 | 38378 ft | 428 kts | 290° |
| 2026-04-30 21:44 | 47.77761 | 23.31012 | 38353 ft | 428 kts | 290° |
| 2026-04-30 21:45 | 47.79462 | 23.22527 | 38357 ft | 428 kts | 289° |
| 2026-04-30 21:45 | 47.81154 | 23.14027 | 38356 ft | 429 kts | 289° |
| 2026-04-30 21:46 | 47.82845 | 23.05519 | 38359 ft | 428 kts | 289° |
| 2026-04-30 21:46 | 47.84537 | 22.97022 | 38339 ft | 428 kts | 289° |
| 2026-04-30 21:47 | 47.86224 | 22.88508 | 38340 ft | 429 kts | 289° |
| 2026-04-30 21:47 | 47.87900 | 22.79981 | 38345 ft | 429 kts | 289° |
| 2026-04-30 21:48 | 47.89562 | 22.71431 | 38347 ft | 430 kts | 289° |
| 2026-04-30 21:48 | 47.91224 | 22.62866 | 38351 ft | 430 kts | 289° |
| 2026-04-30 21:49 | 47.92885 | 22.54306 | 38334 ft | 430 kts | 289° |
| 2026-04-30 21:49 | 47.94540 | 22.45730 | 38338 ft | 431 kts | 289° |
| 2026-04-30 21:50 | 47.96190 | 22.37138 | 38344 ft | 431 kts | 289° |
| 2026-04-30 21:50 | 47.97831 | 22.28527 | 38348 ft | 432 kts | 289° |
| 2026-04-30 21:51 | 47.99471 | 22.19905 | 38352 ft | 432 kts | 289° |
| 2026-04-30 21:51 | 48.01106 | 22.11271 | 38339 ft | 432 kts | 289° |
| 2026-04-30 21:52 | 48.02738 | 22.02617 | 38353 ft | 433 kts | 289° |
| 2026-04-30 21:52 | 48.04089 | 21.95411 | 38361 ft | 433 kts | 289° |
| 2026-04-30 21:53 | 48.05710 | 21.86732 | 38364 ft | 434 kts | 289° |
| 2026-04-30 21:53 | 48.07586 | 21.76634 | 38354 ft | 434 kts | 289° |
| 2026-04-30 21:54 | 48.08934 | 21.69344 | 38358 ft | 434 kts | 289° |
| 2026-04-30 21:54 | 48.10537 | 21.60639 | 38357 ft | 434 kts | 289° |
| 2026-04-30 21:55 | 48.12138 | 21.51921 | 38331 ft | 435 kts | 289° |
| 2026-04-30 21:55 | 48.13733 | 21.43195 | 38336 ft | 435 kts | 289° |
| 2026-04-30 21:56 | 48.15322 | 21.34455 | 38340 ft | 435 kts | 289° |
| 2026-04-30 21:56 | 48.16892 | 21.25763 | 38341 ft | 435 kts | 289° |
| 2026-04-30 21:57 | 48.18467 | 21.17005 | 38342 ft | 435 kts | 289° |
| 2026-04-30 21:57 | 48.20038 | 21.08235 | 38347 ft | 436 kts | 289° |
| 2026-04-30 21:58 | 48.21601 | 20.99463 | 38350 ft | 436 kts | 289° |
| 2026-04-30 21:58 | 48.23163 | 20.90675 | 38334 ft | 436 kts | 289° |
| 2026-04-30 21:59 | 48.24715 | 20.81866 | 38342 ft | 437 kts | 289° |
| 2026-04-30 22:00 | 48.27031 | 20.68644 | 38350 ft | 437 kts | 289° |
| 2026-04-30 22:00 | 48.29333 | 20.55391 | 38339 ft | 438 kts | 289° |
| 2026-04-30 22:01 | 48.30864 | 20.46531 | 38351 ft | 438 kts | 289° |
| 2026-04-30 22:01 | 48.32420 | 20.37670 | 38354 ft | 437 kts | 293° |
| 2026-04-30 22:02 | 48.34713 | 20.29285 | 38370 ft | 434 kts | 298° |
| 2026-04-30 22:02 | 48.37087 | 20.20945 | 38377 ft | 434 kts | 298° |
| 2026-04-30 22:03 | 48.39450 | 20.12586 | 38356 ft | 434 kts | 298° |
| 2026-04-30 22:03 | 48.41808 | 20.04209 | 38366 ft | 435 kts | 298° |
| 2026-04-30 22:04 | 48.44164 | 19.95824 | 38376 ft | 435 kts | 298° |
| 2026-04-30 22:05 | 48.47688 | 19.83215 | 38393 ft | 435 kts | 298° |
| 2026-04-30 22:05 | 48.50031 | 19.74807 | 38374 ft | 436 kts | 298° |
| 2026-04-30 22:06 | 48.52370 | 19.66362 | 38378 ft | 437 kts | 298° |
| 2026-04-30 22:06 | 48.55874 | 19.53673 | 38390 ft | 437 kts | 298° |
| 2026-04-30 22:07 | 48.58205 | 19.45197 | 38395 ft | 437 kts | 297° |
| 2026-04-30 22:07 | 48.60525 | 19.36700 | 38389 ft | 437 kts | 298° |
| 2026-04-30 22:08 | 48.62846 | 19.28200 | 38399 ft | 438 kts | 298° |
| 2026-04-30 22:08 | 48.65160 | 19.19688 | 38413 ft | 438 kts | 297° |
| 2026-04-30 22:09 | 48.67468 | 19.11167 | 38418 ft | 438 kts | 297° |
| 2026-04-30 22:09 | 48.69772 | 19.02641 | 38397 ft | 438 kts | 298° |
| 2026-04-30 22:10 | 48.72051 | 18.94165 | 38409 ft | 438 kts | 298° |
| 2026-04-30 22:10 | 48.74338 | 18.85611 | 38415 ft | 438 kts | 297° |
| 2026-04-30 22:11 | 48.77762 | 18.72770 | 38417 ft | 438 kts | 297° |
| 2026-04-30 22:12 | 48.80037 | 18.64203 | 38381 ft | 438 kts | 297° |
| 2026-04-30 22:12 | 48.82307 | 18.55613 | 38396 ft | 439 kts | 297° |
| 2026-04-30 22:13 | 48.84574 | 18.47004 | 38394 ft | 440 kts | 297° |
| 2026-04-30 22:13 | 48.86842 | 18.38372 | 38407 ft | 440 kts | 297° |
| 2026-04-30 22:14 | 48.89099 | 18.29731 | 38409 ft | 440 kts | 297° |
| 2026-04-30 22:14 | 48.91353 | 18.21085 | 38385 ft | 440 kts | 297° |
| 2026-04-30 22:15 | 48.93596 | 18.12438 | 38404 ft | 440 kts | 297° |
| 2026-04-30 22:15 | 48.95833 | 18.03774 | 38410 ft | 440 kts | 297° |
| 2026-04-30 22:16 | 48.98063 | 17.95101 | 38414 ft | 440 kts | 297° |
| 2026-04-30 22:17 | 49.02519 | 17.77755 | 38400 ft | 440 kts | 297° |
| 2026-04-30 22:17 | 49.05833 | 17.64705 | 38417 ft | 440 kts | 297° |
| 2026-04-30 22:18 | 49.09142 | 17.51628 | 38422 ft | 441 kts | 297° |
| 2026-04-30 22:19 | 49.12435 | 17.38521 | 38424 ft | 441 kts | 297° |
| 2026-04-30 22:20 | 49.15712 | 17.25402 | 38421 ft | 441 kts | 297° |
| 2026-04-30 22:20 | 49.18968 | 17.12338 | 38423 ft | 441 kts | 297° |
| 2026-04-30 22:21 | 49.21136 | 17.03572 | 38392 ft | 441 kts | 297° |
| 2026-04-30 22:21 | 49.23289 | 16.94786 | 38399 ft | 441 kts | 297° |
| 2026-04-30 22:22 | 49.25445 | 16.85994 | 38410 ft | 442 kts | 297° |
| 2026-04-30 22:22 | 49.27603 | 16.77182 | 38414 ft | 442 kts | 297° |
| 2026-04-30 22:23 | 49.29753 | 16.68367 | 38421 ft | 442 kts | 297° |
| 2026-04-30 22:23 | 49.31893 | 16.59546 | 38408 ft | 441 kts | 298° |
| 2026-04-30 22:24 | 49.34020 | 16.50720 | 38431 ft | 441 kts | 297° |
| 2026-04-30 22:24 | 49.36138 | 16.41899 | 38447 ft | 441 kts | 297° |
| 2026-04-30 22:25 | 49.38253 | 16.33054 | 38448 ft | 441 kts | 297° |
| 2026-04-30 22:25 | 49.40366 | 16.24221 | 38422 ft | 441 kts | 298° |
| 2026-04-30 22:26 | 49.43509 | 16.10974 | 38445 ft | 440 kts | 298° |
| 2026-04-30 22:27 | 49.45595 | 16.02152 | 38448 ft | 439 kts | 297° |
| 2026-04-30 22:27 | 49.48706 | 15.88922 | 38446 ft | 438 kts | 297° |
| 2026-04-30 22:28 | 49.51796 | 15.75687 | 38441 ft | 438 kts | 297° |
| 2026-04-30 22:29 | 49.55882 | 15.58057 | 38456 ft | 437 kts | 297° |
| 2026-04-30 22:31 | 49.62948 | 15.27241 | 38426 ft | 435 kts | 297° |
| 2026-04-30 22:32 | 49.67934 | 15.05201 | 38433 ft | 435 kts | 297° |
| 2026-04-30 22:33 | 49.72872 | 14.83156 | 38421 ft | 434 kts | 297° |
| 2026-04-30 22:35 | 49.77775 | 14.61047 | 38414 ft | 435 kts | 296° |
| 2026-04-30 22:36 | 49.82637 | 14.38885 | 38429 ft | 435 kts | 296° |
| 2026-04-30 22:37 | 49.86171 | 14.22603 | 38431 ft | 435 kts | 296° |
| 2026-04-30 22:38 | 49.90006 | 14.04826 | 38427 ft | 434 kts | 296° |
| 2026-04-30 22:39 | 49.92579 | 13.91278 | 38443 ft | 438 kts | 292° |
| 2026-04-30 22:40 | 49.97258 | 13.63885 | 38436 ft | 437 kts | 292° |
| 2026-04-30 22:41 | 50.01224 | 13.41075 | 38453 ft | 437 kts | 292° |
| 2026-04-30 22:43 | 50.05884 | 13.13617 | 38458 ft | 438 kts | 292° |
| 2026-04-30 22:44 | 50.08971 | 12.95293 | 38447 ft | 437 kts | 292° |
| 2026-04-30 22:45 | 50.13525 | 12.67790 | 38441 ft | 437 kts | 291° |
| 2026-04-30 22:47 | 50.18024 | 12.40261 | 38454 ft | 436 kts | 290° |
| 2026-04-30 22:48 | 50.21705 | 12.22399 | 38462 ft | 431 kts | 296° |
| 2026-04-30 22:49 | 50.27736 | 11.96011 | 38419 ft | 431 kts | 296° |
| 2026-04-30 22:51 | 50.33789 | 11.69573 | 38436 ft | 430 kts | 296° |
| 2026-04-30 22:52 | 50.36780 | 11.56324 | 38425 ft | 430 kts | 295° |
| 2026-04-30 22:53 | 50.40744 | 11.38665 | 38463 ft | 429 kts | 295° |
| 2026-04-30 22:53 | 50.43697 | 11.25409 | 38458 ft | 429 kts | 295° |
| 2026-04-30 22:55 | 50.48579 | 11.03296 | 38447 ft | 429 kts | 294° |
| 2026-04-30 22:56 | 50.52442 | 10.85582 | 38448 ft | 428 kts | 294° |
| 2026-04-30 22:57 | 50.57397 | 10.63527 | 38431 ft | 428 kts | 294° |
| 2026-04-30 22:58 | 50.61398 | 10.45896 | 38452 ft | 428 kts | 294° |
| 2026-04-30 22:59 | 50.63875 | 10.32376 | 38450 ft | 436 kts | 278° |
| 2026-04-30 22:59 | 50.61916 | 10.17974 | 37646 ft | 465 kts | 243° |